Time;durP1;ratioP1;P1;durP2;ratioP2;P2;SDS_P1;SDS_P2;PMS_P1;PMS_P2;Temp;Humidity;BMP_temperature;BMP_pressure;BME280_temperature;BME280_humidity;BME280_pressure;Samples;Min_cycle;Max_cycle;Signal;HPM_P1;HPM_P2
2022/09/07 00:00:12;;;;;;;13.68;9.93;;;19.50;99.90;;;;;;5012520;28;20121;-70
2022/09/07 00:02:38;;;;;;;11.45;9.93;;;19.40;99.90;;;;;;5027984;28;20050;-70
2022/09/07 00:05:04;;;;;;;11.43;10.00;;;19.30;99.90;;;;;;5027567;28;20053;-70
2022/09/07 00:07:30;;;;;;;11.73;10.13;;;19.20;99.90;;;;;;5012864;28;20062;-71
2022/09/07 00:09:56;;;;;;;10.35;9.35;;;19.20;99.90;;;;;;5025411;28;20050;-71
2022/09/07 00:12:21;;;;;;;11.20;10.07;;;19.20;99.90;;;;;;5004289;28;20034;-70
2022/09/07 00:14:47;;;;;;;11.32;9.52;;;19.20;99.90;;;;;;5009931;28;20046;-70
2022/09/07 00:17:13;;;;;;;16.10;9.75;;;19.30;99.90;;;;;;5010535;28;20050;-70
2022/09/07 00:19:38;;;;;;;10.75;9.70;;;19.30;99.90;;;;;;5011505;28;20495;-70
2022/09/07 00:22:04;;;;;;;11.52;10.32;;;19.30;99.90;;;;;;5012035;28;20088;-70
2022/09/07 00:24:30;;;;;;;11.50;9.68;;;19.30;99.90;;;;;;5010634;28;20046;-70
2022/09/07 00:26:55;;;;;;;16.98;10.35;;;19.30;99.90;;;;;;5007318;28;20064;-70
2022/09/07 00:29:21;;;;;;;12.02;10.45;;;19.30;99.90;;;;;;5012650;28;20046;-70
2022/09/07 00:31:47;;;;;;;11.02;9.65;;;19.30;99.90;;;;;;5026138;28;20062;-70
2022/09/07 00:34:12;;;;;;;10.35;9.13;;;19.40;99.90;;;;;;5004886;28;20117;-70
2022/09/07 00:36:38;;;;;;;12.60;9.75;;;19.40;99.90;;;;;;5009794;28;20049;-70
2022/09/07 00:39:04;;;;;;;11.57;10.35;;;19.30;99.90;;;;;;5018424;28;20033;-70
2022/09/07 00:41:30;;;;;;;11.65;10.35;;;19.30;99.90;;;;;;4999569;28;20080;-70
2022/09/07 00:44:17;;;;;;;15.93;11.43;;;19.20;99.90;;;;;;5025814;28;20048;-70
2022/09/07 00:46:44;;;;;;;14.27;10.55;;;19.30;99.90;;;;;;5001345;28;20038;-70
2022/09/07 00:49:17;;;;;;;14.60;11.20;;;19.30;99.90;;;;;;4993293;28;20049;-70
2022/09/07 00:51:53;;;;;;;15.90;11.88;;;19.30;99.90;;;;;;5023223;28;20110;-70
2022/09/07 00:54:30;;;;;;;14.13;12.18;;;19.10;99.90;;;;;;5004691;28;20081;-71
2022/09/07 00:56:55;;;;;;;13.85;11.40;;;18.90;99.90;;;;;;5008126;28;20402;-71
2022/09/07 00:59:27;;;;;;;13.13;10.30;;;18.80;99.90;;;;;;5013239;28;20064;-70
2022/09/07 01:01:53;;;;;;;11.15;10.05;;;18.70;99.90;;;;;;5007563;28;20057;-70
2022/09/07 01:04:21;;;;;;;15.05;11.00;;;18.80;99.90;;;;;;4997056;28;20050;-70
2022/09/07 01:06:47;;;;;;;14.20;11.43;;;18.80;99.90;;;;;;5025075;28;20105;-70
2022/09/07 01:09:17;;;;;;;16.80;12.27;;;19.00;99.90;;;;;;5008362;28;20097;-70
2022/09/07 01:11:49;;;;;;;;;;;18.80;99.90;;;;;;5014288;28;20564;-70
2022/09/07 01:14:18;;;;;;;18.73;12.90;;;18.60;99.90;;;;;;5008421;28;19921;-70
2022/09/07 01:17:23;;;;;;;21.17;14.20;;;18.40;99.90;;;;;;5025892;28;20053;-70
2022/09/07 01:20:27;;;;;;;20.15;15.32;;;18.20;99.90;;;;;;5015459;28;20106;-71
2022/09/07 01:23:21;;;;;;;19.20;16.05;;;17.90;99.90;;;;;;4975264;28;20105;-70
2022/09/07 01:26:25;;;;;;;19.17;15.75;;;17.80;99.90;;;;;;5007265;28;20061;-70
2022/09/07 01:29:16;;;;;;;21.55;16.92;;;17.70;99.90;;;;;;5001864;28;20073;-71
2022/09/07 01:31:55;;;;;;;22.85;18.58;;;17.70;99.90;;;;;;5007318;28;20046;-71
2022/09/07 01:34:23;;;;;;;23.73;18.17;;;17.50;99.90;;;;;;5009807;28;20046;-72
2022/09/07 01:36:55;;;;;;;19.77;17.70;;;17.50;99.90;;;;;;4985102;28;20062;-71
2022/09/07 01:39:28;;;;;;;20.10;16.75;;;17.50;99.90;;;;;;4988349;28;20057;-71
2022/09/07 01:42:03;;;;;;;29.75;19.20;;;17.50;99.90;;;;;;4986521;28;20074;-71
2022/09/07 01:44:34;;;;;;;23.90;17.98;;;17.40;99.90;;;;;;4997234;28;20046;-71
2022/09/07 01:47:21;;;;;;;24.27;18.73;;;17.40;99.90;;;;;;4985960;28;20066;-71
2022/09/07 01:49:53;;;;;;;26.98;18.98;;;17.50;99.90;;;;;;4995637;28;20097;-71
2022/09/07 01:52:35;;;;;;;23.98;18.88;;;17.50;99.90;;;;;;5007078;28;20074;-71
2022/09/07 01:55:28;;;;;;;22.60;19.73;;;17.60;99.90;;;;;;4979084;28;20077;-71
2022/09/07 01:58:00;;;;;;;23.23;20.40;;;17.60;99.90;;;;;;4986680;28;20065;-71
2022/09/07 02:00:27;;;;;;;26.05;19.20;;;17.60;99.90;;;;;;4995227;28;20054;-71
2022/09/07 02:03:03;;;;;;;32.17;19.17;;;17.50;99.90;;;;;;5005500;28;20132;-71
2022/09/07 02:05:39;;;;;;;24.25;18.17;;;17.50;99.90;;;;;;4981597;28;20471;-72
2022/09/07 02:08:13;;;;;;;27.88;19.95;;;17.60;99.90;;;;;;4985335;28;20058;-72
2022/09/07 02:10:45;;;;;;;23.90;18.42;;;17.60;99.90;;;;;;5005416;28;20042;-72
2022/09/07 02:13:17;;;;;;;21.30;17.92;;;17.60;99.90;;;;;;5001664;28;20514;-72
2022/09/07 02:15:50;;;;;;;19.98;16.45;;;17.60;99.90;;;;;;4983623;28;20051;-73
2022/09/07 02:18:19;;;;;;;22.83;18.75;;;17.60;99.90;;;;;;4986140;28;20121;-72
2022/09/07 02:20:53;;;;;;;20.15;16.95;;;17.60;99.90;;;;;;4990830;28;20169;-72
2022/09/07 02:23:27;;;;;;;20.58;17.17;;;17.70;99.90;;;;;;5001938;28;20042;-72
2022/09/07 02:26:01;;;;;;;21.33;17.50;;;17.60;99.90;;;;;;5001355;28;20461;-72
2022/09/07 02:28:37;;;;;;;19.75;17.38;;;17.60;99.90;;;;;;4989255;28;20046;-72
2022/09/07 02:31:03;;;;;;;19.35;17.17;;;17.70;99.90;;;;;;4989336;28;20062;-72
2022/09/07 02:33:29;;;;;;;17.67;15.65;;;17.80;99.90;;;;;;4987678;28;20070;-72
2022/09/07 02:35:56;;;;;;;17.52;15.15;;;17.80;99.90;;;;;;5003065;28;20053;-72
2022/09/07 02:38:22;;;;;;;18.17;16.23;;;17.80;99.90;;;;;;5004281;28;20098;-72
2022/09/07 02:40:53;;;;;;;18.33;16.17;;;17.90;99.90;;;;;;4985039;28;20082;-72
2022/09/07 02:43:21;;;;;;;20.10;16.38;;;17.90;99.90;;;;;;5000414;28;20111;-72
2022/09/07 02:46:04;;;;;;;19.70;17.63;;;17.90;99.90;;;;;;4995436;28;20081;-72
2022/09/07 02:48:48;;;;;;;20.95;17.23;;;18.00;99.90;;;;;;4978258;28;20895;-72
2022/09/07 02:51:49;;;;;;;20.38;16.67;;;18.00;99.90;;;;;;4999433;28;20057;-72
2022/09/07 02:54:29;;;;;;;19.67;17.58;;;17.90;99.90;;;;;;5017864;28;20059;-72
2022/09/07 02:57:14;;;;;;;22.13;17.10;;;17.80;99.90;;;;;;4981888;28;20057;-72
2022/09/07 03:00:00;;;;;;;18.38;16.40;;;17.90;99.90;;;;;;4991759;28;20050;-72
2022/09/07 03:02:53;;;;;;;21.73;17.90;;;17.90;99.90;;;;;;4969491;28;20046;-72
2022/09/07 03:05:43;;;;;;;18.35;16.45;;;17.90;99.90;;;;;;4984663;28;20047;-72
2022/09/07 03:08:55;;;;;;;19.20;17.25;;;17.90;99.90;;;;;;4998903;28;20077;-72
2022/09/07 03:11:21;;;;;;;18.10;15.90;;;17.90;99.90;;;;;;5022643;28;20090;-72
2022/09/07 03:13:47;;;;;;;19.27;15.38;;;18.00;99.90;;;;;;5001229;28;20050;-72
2022/09/07 03:16:14;;;;;;;20.38;17.58;;;18.00;99.90;;;;;;4989578;28;20051;-72
2022/09/07 03:18:41;;;;;;;19.30;17.30;;;18.00;99.90;;;;;;4995281;28;20065;-72
2022/09/07 03:21:06;;;;;;;20.42;17.88;;;18.00;99.90;;;;;;4993259;28;20054;-72
2022/09/07 03:23:32;;;;;;;21.27;18.42;;;18.00;99.90;;;;;;5004043;28;20061;-72
2022/09/07 03:25:57;;;;;;;19.30;17.25;;;18.00;99.90;;;;;;4971359;28;20510;-72
2022/09/07 03:28:23;;;;;;;19.65;17.60;;;17.90;99.90;;;;;;5010363;28;20449;-72
2022/09/07 03:30:49;;;;;;;19.23;16.90;;;18.00;99.90;;;;;;5014199;28;20080;-72
2022/09/07 03:33:15;;;;;;;19.95;17.48;;;17.90;99.90;;;;;;5011006;28;20065;-72
2022/09/07 03:35:45;;;;;;;21.45;17.73;;;17.90;99.90;;;;;;5043137;28;20045;-72
2022/09/07 03:38:11;;;;;;;19.65;16.95;;;17.90;99.90;;;;;;5034569;28;20054;-72
2022/09/07 03:40:37;;;;;;;19.25;17.25;;;17.80;99.90;;;;;;5028582;28;20101;-72
2022/09/07 03:43:04;;;;;;;24.42;18.80;;;17.80;99.90;;;;;;5042879;28;20076;-72
2022/09/07 03:45:29;;;;;;;19.55;17.50;;;17.90;99.90;;;;;;5028907;28;20092;-72
2022/09/07 03:47:55;;;;;;;21.30;18.95;;;17.80;99.90;;;;;;5012438;28;20493;-72
2022/09/07 03:50:20;;;;;;;20.95;18.85;;;17.80;99.90;;;;;;5028171;28;20088;-72
2022/09/07 03:52:46;;;;;;;20.98;18.58;;;17.80;99.90;;;;;;5030627;28;20045;-72
2022/09/07 03:55:12;;;;;;;26.73;19.90;;;17.70;99.90;;;;;;5029613;28;20041;-72
2022/09/07 03:57:39;;;;;;;24.38;19.77;;;17.70;99.90;;;;;;5031667;28;20050;-72
2022/09/07 04:00:05;;;;;;;19.30;16.55;;;17.70;99.90;;;;;;5020893;28;20111;-72
2022/09/07 04:02:31;;;;;;;22.65;18.42;;;17.70;99.90;;;;;;5019059;28;20086;-72
2022/09/07 04:04:56;;;;;;;20.77;18.10;;;17.70;99.90;;;;;;5009099;28;20108;-72
2022/09/07 04:07:22;;;;;;;20.60;18.23;;;17.70;99.90;;;;;;5037033;28;20046;-72
2022/09/07 04:09:50;;;;;;;23.92;20.60;;;17.80;99.90;;;;;;5010397;28;20042;-72
2022/09/07 04:12:15;;;;;;;20.70;18.55;;;17.80;99.90;;;;;;5009857;28;20050;-72
2022/09/07 04:14:41;;;;;;;22.85;20.10;;;17.80;99.90;;;;;;5010083;28;20074;-72
2022/09/07 04:17:07;;;;;;;25.73;22.02;;;17.80;99.90;;;;;;5009043;28;20527;-72
2022/09/07 04:19:32;;;;;;;24.13;21.55;;;17.70;99.90;;;;;;5011775;28;20105;-72
2022/09/07 04:21:58;;;;;;;24.05;21.08;;;17.70;99.90;;;;;;5005993;28;20054;-72
2022/09/07 04:24:24;;;;;;;24.58;20.98;;;17.70;99.90;;;;;;5001224;28;20069;-72
2022/09/07 04:26:49;;;;;;;24.70;21.00;;;17.70;99.90;;;;;;4993599;28;20065;-72
2022/09/07 04:29:15;;;;;;;24.88;22.10;;;17.60;99.90;;;;;;5005792;28;20074;-72
2022/09/07 04:31:41;;;;;;;28.42;24.23;;;17.60;99.90;;;;;;5005819;28;20062;-71
2022/09/07 04:34:07;;;;;;;23.58;21.05;;;17.60;99.90;;;;;;4994833;28;20069;-74
2022/09/07 04:36:33;;;;;;;23.35;20.85;;;17.60;99.90;;;;;;4987247;28;20046;-70
2022/09/07 04:39:02;;;;;;;28.75;23.77;;;17.60;99.90;;;;;;5003058;28;20062;-71
2022/09/07 04:41:30;;;;;;;24.88;22.00;;;17.50;99.90;;;;;;5011466;28;20077;-71
2022/09/07 04:44:00;;;;;;;26.05;22.20;;;17.40;99.90;;;;;;4971734;28;20077;-71
2022/09/07 04:46:28;;;;;;;24.80;22.05;;;17.40;99.90;;;;;;5005709;28;20050;-70
2022/09/07 04:48:57;;;;;;;26.23;22.40;;;17.40;99.90;;;;;;5018526;28;20062;-72
2022/09/07 04:51:25;;;;;;;27.38;23.08;;;17.40;99.90;;;;;;4986889;28;20051;-73
2022/09/07 04:53:52;;;;;;;25.08;22.13;;;17.30;99.90;;;;;;5002908;28;20046;-72
2022/09/07 04:56:19;;;;;;;27.50;22.65;;;17.30;99.90;;;;;;4991963;28;20102;-72
2022/09/07 04:58:46;;;;;;;27.67;22.48;;;17.30;99.90;;;;;;4984086;28;20070;-72
2022/09/07 05:01:18;;;;;;;27.83;22.58;;;17.30;99.90;;;;;;4985965;28;20075;-72
2022/09/07 05:03:45;;;;;;;28.45;22.88;;;17.30;99.90;;;;;;4991061;28;20053;-71
2022/09/07 05:06:11;;;;;;;24.35;21.75;;;17.20;99.90;;;;;;5004156;28;20046;-72
2022/09/07 05:08:42;;;;;;;26.20;23.25;;;17.20;99.90;;;;;;5005808;28;20073;-72
2022/09/07 05:11:09;;;;;;;26.25;23.13;;;17.20;99.90;;;;;;4985588;28;20062;-72
2022/09/07 05:13:35;;;;;;;26.35;20.95;;;17.20;99.90;;;;;;5007422;28;20050;-71
2022/09/07 05:16:08;;;;;;;27.35;22.73;;;17.20;99.90;;;;;;5004323;28;20076;-68
2022/09/07 05:18:33;;;;;;;30.25;22.73;;;17.20;99.90;;;;;;4984794;28;20043;-72
2022/09/07 05:21:12;;;;;;;25.92;22.65;;;17.20;99.90;;;;;;5002467;28;20046;-70
2022/09/07 05:23:38;;;;;;;28.48;23.13;;;17.20;99.90;;;;;;5001662;28;20042;-69
2022/09/07 05:26:05;;;;;;;29.15;24.77;;;17.20;99.90;;;;;;5003711;28;20105;-70
2022/09/07 05:28:32;;;;;;;24.38;21.67;;;17.20;99.90;;;;;;4994796;28;20127;-69
2022/09/07 05:31:09;;;;;;;26.52;23.17;;;17.20;99.90;;;;;;4988584;28;20050;-70
2022/09/07 05:33:35;;;;;;;23.55;20.83;;;17.20;99.90;;;;;;5007014;28;20046;-69
2022/09/07 05:36:02;;;;;;;27.10;23.20;;;17.20;99.90;;;;;;4989435;28;20050;-69
2022/09/07 05:38:28;;;;;;;25.45;22.60;;;17.20;99.90;;;;;;4965011;28;20042;-69
2022/09/07 05:40:54;;;;;;;27.58;24.58;;;17.30;99.90;;;;;;4989520;28;20042;-69
2022/09/07 05:43:20;;;;;;;26.00;23.35;;;17.20;99.90;;;;;;5005851;28;20084;-69
2022/09/07 05:45:47;;;;;;;26.38;23.52;;;17.30;99.90;;;;;;5007016;28;20042;-68
2022/09/07 05:48:12;;;;;;;26.90;23.67;;;17.30;99.90;;;;;;4990730;28;20047;-70
2022/09/07 05:50:38;;;;;;;24.88;22.05;;;17.40;99.90;;;;;;4988393;28;20057;-67
2022/09/07 05:53:04;;;;;;;26.48;23.42;;;17.40;99.90;;;;;;4988767;28;20053;-67
2022/09/07 05:55:30;;;;;;;26.58;23.67;;;17.30;99.90;;;;;;4995582;28;20074;-68
2022/09/07 05:57:56;;;;;;;26.77;23.52;;;17.40;99.90;;;;;;4999261;28;20054;-68
2022/09/07 06:00:22;;;;;;;27.65;22.90;;;17.30;99.90;;;;;;4992852;28;20050;-68
2022/09/07 06:02:47;;;;;;;28.20;24.30;;;17.40;99.90;;;;;;5008632;28;20052;-68
2022/09/07 06:05:13;;;;;;;28.42;25.33;;;17.40;99.90;;;;;;4976787;28;20042;-68
2022/09/07 06:07:39;;;;;;;26.13;22.95;;;17.50;99.90;;;;;;5005677;28;20073;-68
2022/09/07 06:10:06;;;;;;;25.52;22.48;;;17.50;99.90;;;;;;4992048;28;20042;-68
2022/09/07 06:12:32;;;;;;;28.48;23.35;;;17.50;99.90;;;;;;5014669;28;20054;-68
2022/09/07 06:15:00;;;;;;;28.17;24.88;;;17.50;99.90;;;;;;5025925;28;20050;-68
2022/09/07 06:17:27;;;;;;;25.08;22.48;;;17.50;99.90;;;;;;5009316;28;20060;-68
2022/09/07 06:19:53;;;;;;;24.17;21.52;;;17.60;99.90;;;;;;4955895;28;20057;-69
2022/09/07 06:22:19;;;;;;;26.77;23.95;;;17.60;99.90;;;;;;4971742;28;20078;-68
2022/09/07 06:24:45;;;;;;;28.40;25.27;;;17.60;99.90;;;;;;4973797;28;20102;-68
2022/09/07 06:27:11;;;;;;;27.73;24.23;;;17.70;99.90;;;;;;4982309;28;20047;-68
2022/09/07 06:29:37;;;;;;;27.77;24.55;;;17.70;99.90;;;;;;4994341;28;20449;-68
2022/09/07 06:32:03;;;;;;;30.30;27.13;;;17.70;99.90;;;;;;5014813;28;20050;-67
2022/09/07 06:34:29;;;;;;;29.42;26.10;;;17.70;99.90;;;;;;5040308;28;20049;-68
2022/09/07 06:36:55;;;;;;;31.83;26.13;;;17.80;99.90;;;;;;5041610;28;20070;-70
2022/09/07 06:39:21;;;;;;;28.67;24.42;;;17.80;99.90;;;;;;5010763;28;20069;-71
2022/09/07 06:41:46;;;;;;;26.30;23.50;;;17.80;99.90;;;;;;5016750;28;20042;-68
2022/09/07 06:44:12;;;;;;;28.55;25.20;;;17.90;99.90;;;;;;5013300;28;20101;-68
2022/09/07 06:46:38;;;;;;;25.33;22.55;;;18.00;99.90;;;;;;5024566;28;20065;-68
2022/09/07 06:49:04;;;;;;;30.05;26.25;;;18.10;99.90;;;;;;5023764;28;20100;-68
2022/09/07 06:51:30;;;;;;;25.35;22.65;;;18.20;99.90;;;;;;5025230;28;20046;-68
2022/09/07 06:53:57;;;;;;;27.25;24.25;;;18.20;99.90;;;;;;5044942;28;20056;-68
2022/09/07 06:56:26;;;;;;;26.52;23.73;;;18.30;99.90;;;;;;5031087;28;20421;-68
2022/09/07 06:58:58;;;;;;;25.80;23.00;;;18.30;99.90;;;;;;5003814;28;20051;-68
2022/09/07 07:01:25;;;;;;;26.63;23.83;;;18.40;99.90;;;;;;5039843;28;20054;-68
2022/09/07 07:03:52;;;;;;;27.75;22.63;;;18.50;99.90;;;;;;5008261;28;20394;-68
2022/09/07 07:06:18;;;;;;;24.05;21.55;;;18.50;99.90;;;;;;5007943;28;20053;-68
2022/09/07 07:08:44;;;;;;;28.63;23.23;;;18.60;99.90;;;;;;5015335;28;20046;-68
2022/09/07 07:11:12;;;;;;;24.98;21.15;;;18.50;99.90;;;;;;5044093;28;20058;-68
2022/09/07 07:13:39;;;;;;;22.83;19.77;;;18.60;99.90;;;;;;5008147;28;20046;-68
2022/09/07 07:16:13;;;;;;;23.48;20.98;;;18.60;99.90;;;;;;5011629;28;20073;-68
2022/09/07 07:18:40;;;;;;;22.13;19.75;;;18.50;99.90;;;;;;5023595;28;20056;-68
2022/09/07 07:21:08;;;;;;;22.63;20.42;;;18.60;99.90;;;;;;5046783;28;20045;-68
2022/09/07 07:23:35;;;;;;;23.10;19.48;;;18.60;99.90;;;;;;5017662;28;20093;-68
2022/09/07 07:26:11;;;;;;;24.13;20.25;;;18.60;99.90;;;;;;5026777;28;20042;-68
2022/09/07 07:28:37;;;;;;;23.77;20.10;;;18.60;99.90;;;;;;5009639;28;20106;-68
2022/09/07 07:31:04;;;;;;;22.08;19.58;;;18.60;99.90;;;;;;5023396;28;20061;-68
2022/09/07 07:33:32;;;;;;;23.13;20.73;;;18.60;99.90;;;;;;5013832;28;20098;-68
2022/09/07 07:36:09;;;;;;;26.88;20.88;;;18.60;99.90;;;;;;5023320;28;20494;-68
2022/09/07 07:38:35;;;;;;;23.55;21.05;;;18.60;99.90;;;;;;5022028;28;20050;-68
2022/09/07 07:41:00;;;;;;;23.02;20.10;;;18.60;99.90;;;;;;5005670;28;20124;-68
2022/09/07 07:43:26;;;;;;;25.08;20.95;;;18.60;99.90;;;;;;5023998;28;20041;-68
2022/09/07 07:45:54;;;;;;;25.25;22.13;;;18.70;99.90;;;;;;5019031;28;20061;-68
2022/09/07 07:48:20;;;;;;;23.52;21.10;;;18.70;99.90;;;;;;5017475;28;20104;-68
2022/09/07 07:50:59;;;;;;;23.00;20.65;;;18.70;99.90;;;;;;5008092;28;20046;-68
2022/09/07 07:53:26;;;;;;;23.67;20.15;;;18.70;99.90;;;;;;5011544;28;20061;-68
2022/09/07 07:55:52;;;;;;;23.25;20.83;;;18.70;99.90;;;;;;5012907;28;20493;-68
2022/09/07 07:58:18;;;;;;;27.13;21.08;;;18.80;99.90;;;;;;5012878;28;20056;-68
2022/09/07 08:00:45;;;;;;;22.35;20.05;;;18.80;99.90;;;;;;5005262;28;20051;-68
2022/09/07 08:03:11;;;;;;;21.67;19.48;;;18.80;99.90;;;;;;5015453;28;20057;-68
2022/09/07 08:05:37;;;;;;;26.90;21.38;;;18.90;99.90;;;;;;5027887;28;20129;-68
2022/09/07 08:08:03;;;;;;;21.50;19.38;;;18.90;99.90;;;;;;5025384;28;20042;-68
2022/09/07 08:10:29;;;;;;;21.73;19.42;;;18.90;99.90;;;;;;5018399;28;20061;-68
2022/09/07 08:12:55;;;;;;;24.00;20.63;;;18.90;99.90;;;;;;5007832;28;20092;-68
2022/09/07 08:15:21;;;;;;;23.10;20.63;;;18.90;99.90;;;;;;5007624;28;20042;-68
2022/09/07 08:17:47;;;;;;;23.58;20.50;;;18.90;99.90;;;;;;5007651;28;20131;-68
2022/09/07 08:20:14;;;;;;;23.75;21.20;;;19.00;99.90;;;;;;5027422;28;20050;-68
2022/09/07 08:22:39;;;;;;;23.55;21.02;;;19.00;99.90;;;;;;5030932;28;20073;-68
2022/09/07 08:25:06;;;;;;;26.55;21.73;;;19.00;99.90;;;;;;5011658;28;20057;-68
2022/09/07 08:27:33;;;;;;;24.10;20.58;;;19.10;99.90;;;;;;5001050;28;20129;-68
2022/09/07 08:29:59;;;;;;;25.13;20.52;;;19.20;99.90;;;;;;5016573;28;20057;-68
2022/09/07 08:32:26;;;;;;;23.90;21.40;;;19.20;99.90;;;;;;4987377;28;20464;-68
2022/09/07 08:34:51;;;;;;;24.27;20.48;;;19.20;99.90;;;;;;4985588;28;20078;-68
2022/09/07 08:37:17;;;;;;;22.73;19.63;;;19.30;99.90;;;;;;4987325;28;20043;-68
2022/09/07 08:39:43;;;;;;;24.08;21.27;;;19.40;99.90;;;;;;5008655;28;20042;-68
2022/09/07 08:42:23;;;;;;;24.85;20.70;;;19.50;99.90;;;;;;5004728;28;20053;-68
2022/09/07 08:45:03;;;;;;;28.88;24.20;;;19.60;99.90;;;;;;4994069;28;20058;-68
2022/09/07 08:47:37;;;;;;;26.23;22.65;;;19.50;99.90;;;;;;5006787;28;20042;-68
2022/09/07 08:50:42;;;;;;;23.70;21.13;;;19.60;99.90;;;;;;4988908;28;20035;-68
2022/09/07 08:53:14;;;;;;;27.67;21.85;;;19.80;99.90;;;;;;4982459;28;20055;-68
2022/09/07 08:55:56;;;;;;;29.83;22.40;;;19.80;99.90;;;;;;5005711;28;20045;-68
2022/09/07 08:58:36;;;;;;;25.95;20.80;;;19.90;99.90;;;;;;4987682;28;20134;-68
2022/09/07 09:01:16;;;;;;;26.38;22.73;;;19.80;99.90;;;;;;5005866;28;20045;-68
2022/09/07 09:03:42;;;;;;;26.65;23.67;;;19.80;99.90;;;;;;4994520;28;20406;-68
2022/09/07 09:06:30;;;;;;;24.55;20.73;;;19.70;99.90;;;;;;4991258;28;20080;-68
2022/09/07 09:09:15;;;;;;;29.15;22.58;;;19.70;99.90;;;;;;4991465;28;20050;-68
2022/09/07 09:12:06;;;;;;;25.15;22.23;;;19.70;99.90;;;;;;4993697;28;20054;-68
2022/09/07 09:14:53;;;;;;;25.70;22.67;;;19.80;99.90;;;;;;4988064;28;20108;-68
2022/09/07 09:17:46;;;;;;;24.85;21.42;;;19.80;99.90;;;;;;4987277;28;20112;-68
2022/09/07 09:20:34;;;;;;;22.63;20.13;;;19.80;99.90;;;;;;5007846;28;20088;-68
2022/09/07 09:23:11;;;;;;;23.02;20.42;;;19.80;99.90;;;;;;5000517;28;20066;-68
2022/09/07 09:25:40;;;;;;;23.05;19.95;;;19.90;99.90;;;;;;4995588;28;20057;-68
2022/09/07 09:28:10;;;;;;;24.15;20.67;;;19.90;99.90;;;;;;4986428;28;20055;-68
2022/09/07 09:30:36;;;;;;;22.50;19.15;;;19.90;99.90;;;;;;5006785;28;20077;-68
2022/09/07 09:33:31;;;;;;;22.10;19.83;;;19.80;99.90;;;;;;4972101;28;20050;-68
2022/09/07 09:35:59;;;;;;;19.10;17.13;;;19.70;99.90;;;;;;4992597;28;20066;-68
2022/09/07 09:38:30;;;;;;;21.38;18.33;;;19.80;99.90;;;;;;4994788;28;20050;-68
2022/09/07 09:41:07;;;;;;;19.98;17.92;;;19.90;99.90;;;;;;5006491;28;20571;-68
2022/09/07 09:43:50;;;;;;;19.42;17.17;;;20.10;99.90;;;;;;5005567;28;20042;-68
2022/09/07 09:46:30;;;;;;;21.25;19.02;;;20.10;99.90;;;;;;4975115;28;20065;-68
2022/09/07 09:49:02;;;;;;;18.00;16.13;;;20.10;99.90;;;;;;5005441;28;20080;-68
2022/09/07 09:51:32;;;;;;;18.98;16.98;;;20.10;99.90;;;;;;5006099;28;20093;-68
2022/09/07 09:54:18;;;;;;;20.80;16.83;;;20.20;99.90;;;;;;4984094;28;20126;-68
2022/09/07 09:56:46;;;;;;;18.50;16.33;;;20.20;99.90;;;;;;4989761;28;20089;-68
2022/09/07 09:59:14;;;;;;;18.65;16.50;;;20.20;99.90;;;;;;4979384;28;20088;-68
2022/09/07 10:01:40;;;;;;;21.42;16.95;;;20.20;99.90;;;;;;4987479;28;20050;-68
2022/09/07 10:04:30;;;;;;;18.15;15.40;;;20.20;99.90;;;;;;4989181;28;20073;-68
2022/09/07 10:07:12;;;;;;;17.98;15.30;;;20.40;99.90;;;;;;4981973;28;20127;-68
2022/09/07 10:09:47;;;;;;;15.07;13.43;;;20.40;99.90;;;;;;4987227;28;20054;-68
2022/09/07 10:12:30;;;;;;;17.10;14.43;;;20.50;99.90;;;;;;4991124;28;20402;-68
2022/09/07 10:14:58;;;;;;;15.95;14.35;;;20.30;99.90;;;;;;5005354;28;20050;-68
2022/09/07 10:17:36;;;;;;;14.52;13.05;;;20.20;99.90;;;;;;5001027;28;20050;-68
2022/09/07 10:20:14;;;;;;;16.40;14.15;;;20.30;99.90;;;;;;5004006;28;20553;-68
2022/09/07 10:22:43;;;;;;;18.02;12.43;;;20.20;99.90;;;;;;5006253;28;20065;-68
2022/09/07 10:25:27;;;;;;;17.48;12.88;;;20.40;99.90;;;;;;5021426;28;20073;-68
2022/09/07 10:28:02;;;;;;;15.13;13.02;;;20.50;99.90;;;;;;4986225;28;20100;-68
2022/09/07 10:30:50;;;;;;;17.13;15.43;;;20.50;99.90;;;;;;4997015;28;20046;-68
2022/09/07 10:33:43;;;;;;;13.70;12.27;;;20.70;99.90;;;;;;4987962;28;20043;-68
2022/09/07 10:36:32;;;;;;;13.73;12.43;;;20.70;99.90;;;;;;5005821;28;20487;-68
2022/09/07 10:39:04;;;;;;;13.88;12.48;;;20.70;99.90;;;;;;4990296;28;20074;-68
2022/09/07 10:42:00;;;;;;;12.98;10.82;;;20.70;99.90;;;;;;4990928;28;20054;-68
2022/09/07 10:44:53;;;;;;;12.20;10.57;;;20.70;99.90;;;;;;5022910;28;20050;-68
2022/09/07 10:47:49;;;;;;;12.30;11.00;;;20.80;99.90;;;;;;5005186;28;20102;-68
2022/09/07 10:50:24;;;;;;;10.18;9.05;;;20.90;99.90;;;;;;4998723;28;20051;-68
2022/09/07 10:53:13;;;;;;;10.65;9.55;;;21.10;99.90;;;;;;4998132;28;20428;-68
2022/09/07 10:55:46;;;;;;;10.15;9.02;;;21.20;99.90;;;;;;5005035;28;20046;-68
2022/09/07 10:58:55;;;;;;;11.32;10.13;;;21.20;99.90;;;;;;5006752;28;20050;-67
2022/09/07 11:01:20;;;;;;;12.85;10.80;;;21.30;99.90;;;;;;5004403;28;20573;-68
2022/09/07 11:03:52;;;;;;;10.45;9.32;;;21.30;99.90;;;;;;5005648;28;20057;-68
2022/09/07 11:06:26;;;;;;;11.88;9.27;;;21.50;99.90;;;;;;4992381;28;20074;-68
2022/09/07 11:09:24;;;;;;;8.10;6.75;;;21.60;99.90;;;;;;5003806;28;20108;-68
2022/09/07 11:12:05;;;;;;;8.57;6.22;;;21.70;99.90;;;;;;4987934;28;20133;-68
2022/09/07 11:14:39;;;;;;;9.70;7.20;;;21.70;99.90;;;;;;5003983;28;20065;-68
2022/09/07 11:17:23;;;;;;;10.27;7.22;;;21.70;99.90;;;;;;4994773;28;20062;-68
2022/09/07 11:19:55;;;;;;;10.55;9.45;;;21.90;99.90;;;;;;4992526;28;20098;-68
2022/09/07 11:22:47;;;;;;;9.35;8.30;;;21.80;99.90;;;;;;4998010;28;20132;-68
2022/09/07 11:25:57;;;;;;;8.05;7.20;;;21.80;99.90;;;;;;5000865;28;20069;-68
2022/09/07 11:28:29;;;;;;;8.95;6.30;;;22.00;99.90;;;;;;5008455;28;20077;-68
2022/09/07 11:31:00;;;;;;;10.50;7.68;;;22.10;99.90;;;;;;4991653;28;20046;-68
2022/09/07 11:33:33;;;;;;;9.82;7.85;;;22.10;99.90;;;;;;5042532;28;20041;-68
2022/09/07 11:36:10;;;;;;;8.48;7.15;;;22.00;99.90;;;;;;5056625;28;20153;-68
2022/09/07 11:38:50;;;;;;;5.88;5.22;;;22.00;99.90;;;;;;5027310;28;20041;-68
2022/09/07 11:41:48;;;;;;;7.57;6.65;;;22.10;99.90;;;;;;5046125;28;20572;-68
2022/09/07 11:44:23;;;;;;;6.15;4.90;;;22.10;99.90;;;;;;5011360;28;20058;-68
2022/09/07 11:47:04;;;;;;;7.70;5.85;;;22.20;99.90;;;;;;5028559;28;20092;-68
2022/09/07 11:49:29;;;;;;;6.78;4.97;;;22.20;99.90;;;;;;5011634;28;20042;-68
2022/09/07 11:51:59;;;;;;;6.15;4.57;;;22.20;99.90;;;;;;5046548;28;20088;-68
2022/09/07 11:54:44;;;;;;;7.20;5.90;;;22.30;99.90;;;;;;5031281;28;20038;-68
2022/09/07 11:57:13;;;;;;;5.05;4.55;;;22.40;99.90;;;;;;5027236;28;20061;-68
2022/09/07 12:00:01;;;;;;;5.67;3.93;;;22.60;99.90;;;;;;5015353;28;20093;-68
2022/09/07 12:02:43;;;;;;;5.47;4.80;;;22.60;99.90;;;;;;5017397;28;20307;-68
2022/09/07 12:05:27;;;;;;;6.60;5.20;;;22.50;99.90;;;;;;5009181;28;20490;-68
2022/09/07 12:08:29;;;;;;;6.18;4.82;;;22.60;99.90;;;;;;5010762;28;20041;-68
2022/09/07 12:11:09;;;;;;;5.18;4.38;;;22.60;99.90;;;;;;5013412;28;20050;-68
2022/09/07 12:13:54;;;;;;;6.13;4.40;;;22.60;99.90;;;;;;5026648;28;20101;-68
2022/09/07 12:16:48;;;;;;;5.05;3.70;;;22.60;99.90;;;;;;5026553;28;20044;-68
2022/09/07 12:19:20;;;;;;;6.40;4.28;;;22.50;99.90;;;;;;5042765;28;20041;-68
2022/09/07 12:21:51;;;;;;;4.63;3.58;;;22.50;99.90;;;;;;5027754;28;20053;-68
2022/09/07 12:24:41;;;;;;;7.28;4.80;;;22.40;99.90;;;;;;5015309;28;20081;-68
2022/09/07 12:27:19;;;;;;;;;;;22.70;99.90;;;;;;5012086;28;20046;-68
2022/09/07 12:29:46;;;;;;;5.32;4.18;;;22.70;99.90;;;;;;5019016;28;19965;-68
2022/09/07 12:32:47;;;;;;;6.15;3.30;;;22.60;99.90;;;;;;5031905;28;20069;-68
2022/09/07 12:35:25;;;;;;;4.63;3.17;;;22.70;99.90;;;;;;5033357;28;20062;-68
2022/09/07 12:38:16;;;;;;;4.47;4.00;;;22.80;99.90;;;;;;5044688;28;20054;-68
2022/09/07 12:41:01;;;;;;;4.65;3.67;;;22.90;99.90;;;;;;5011612;28;20041;-67
2022/09/07 12:43:26;;;;;;;5.00;3.35;;;23.10;99.90;;;;;;5013666;28;20056;-68
2022/09/07 12:45:55;;;;;;;4.40;3.42;;;23.30;99.90;;;;;;5002049;28;20038;-68
2022/09/07 12:48:56;;;;;;;4.82;3.40;;;23.30;99.90;;;;;;5041638;28;20062;-68
2022/09/07 12:51:29;;;;;;;6.43;3.60;;;23.50;99.90;;;;;;4914852;29;20060;-68
2022/09/07 12:54:08;;;;;;;5.20;3.90;;;23.20;99.90;;;;;;4922626;29;20574;-68
2022/09/07 12:56:57;;;;;;;5.60;3.97;;;23.20;99.90;;;;;;4929795;29;20123;-67
2022/09/07 12:59:34;;;;;;;7.03;4.57;;;23.30;99.90;;;;;;4930056;29;20052;-68